createdAt,value
2022-10-20T00:00:02.813Z,97.23
2022-10-20T00:01:02.814Z,96.86
2022-10-20T00:02:02.804Z,96.92
2022-10-20T00:03:02.868Z,98.00
2022-10-20T00:04:02.807Z,97.96
2022-10-20T00:05:02.784Z,97.59
2022-10-20T00:06:02.774Z,97.54
2022-10-20T00:07:02.756Z,97.23
2022-10-20T00:08:02.756Z,97.28
2022-10-20T00:09:02.837Z,97.69
2022-10-20T00:10:02.735Z,97.59
2022-10-20T00:11:02.739Z,97.38
2022-10-20T00:12:02.715Z,97.17
2022-10-20T00:13:02.718Z,97.38
2022-10-20T00:14:02.718Z,97.32
2022-10-20T00:15:02.725Z,97.84
2022-10-20T00:16:03.433Z,97.53
2022-10-20T00:17:02.671Z,97.32
2022-10-20T00:18:02.676Z,97.26
2022-10-20T00:19:02.680Z,97.42
2022-10-20T00:20:02.700Z,97.57
2022-10-20T00:21:02.646Z,97.78
2022-10-20T00:22:02.645Z,97.93
2022-10-20T00:23:02.629Z,98.13
2022-10-20T00:24:02.640Z,98.13
2022-10-20T00:25:02.620Z,98.44
2022-10-20T00:26:02.597Z,98.86
2022-10-20T00:27:02.596Z,98.44
2022-10-20T00:28:02.593Z,98.44
2022-10-20T00:30:02.675Z,98.86
2022-10-20T00:31:02.645Z,99.48
2022-10-20T00:32:03.724Z,99.32
2022-10-20T00:33:03.721Z,99.32
2022-10-20T00:34:03.712Z,99.32
2022-10-20T00:35:03.719Z,99.84
2022-10-20T00:36:03.715Z,99.99
2022-10-20T00:37:03.697Z,99.84
2022-10-20T00:38:03.691Z,99.94
2022-10-20T00:39:03.674Z,99.99
2022-10-20T00:40:03.670Z,99.94
2022-10-20T00:41:03.667Z,99.99
2022-10-20T00:42:03.661Z,99.58
2022-10-20T00:43:03.642Z,99.99
2022-10-20T00:44:03.639Z,99.27
2022-10-20T00:45:03.624Z,99.69
2022-10-20T00:46:03.619Z,98.91
2022-10-20T00:47:03.616Z,99.73
2022-10-20T00:48:04.540Z,99.84
2022-10-20T00:49:03.600Z,99.73
2022-10-20T00:50:03.598Z,99.94
2022-10-20T00:51:03.579Z,99.99
2022-10-20T00:52:03.575Z,99.94
2022-10-20T00:53:03.566Z,99.99
2022-10-20T00:54:03.569Z,99.94
2022-10-20T00:55:03.548Z,99.63
2022-10-20T00:56:03.551Z,99.43
2022-10-20T00:58:03.526Z,99.26
2022-10-20T00:59:03.524Z,99.16
2022-10-20T01:00:03.512Z,99.16
2022-10-20T01:01:03.510Z,99.99
2022-10-20T01:02:03.793Z,99.57
2022-10-20T01:03:03.486Z,99.47
2022-10-20T01:04:03.475Z,99.31
2022-10-20T01:05:03.482Z,99.37
2022-10-20T01:06:03.457Z,99.72
2022-10-20T01:07:03.466Z,99.72
2022-10-20T01:08:03.453Z,99.37
2022-10-20T01:09:03.501Z,99.62
2022-10-20T01:10:03.443Z,99.21
2022-10-20T01:11:03.413Z,99.66
2022-10-20T01:12:03.405Z,99.82
2022-10-20T01:13:03.405Z,99.99
2022-10-20T01:14:04.032Z,99.99
2022-10-20T01:15:03.396Z,99.82
2022-10-20T01:16:03.374Z,99.99
2022-10-20T01:17:03.369Z,99.99
2022-10-20T01:18:03.436Z,99.99
2022-10-20T01:19:03.368Z,99.66
2022-10-20T01:20:03.347Z,99.99
2022-10-20T01:21:03.335Z,99.99
2022-10-20T01:22:03.329Z,99.93
2022-10-20T01:23:03.337Z,99.99
2022-10-20T01:24:03.319Z,99.99
2022-10-20T01:25:03.311Z,99.98
2022-10-20T01:26:03.302Z,99.99
2022-10-20T01:27:03.294Z,99.98
2022-10-20T01:28:03.286Z,99.99
2022-10-20T01:29:03.277Z,99.99
2022-10-20T01:30:03.268Z,99.99
2022-10-20T01:31:03.275Z,99.99
2022-10-20T01:32:03.253Z,99.99
2022-10-20T01:33:03.259Z,99.99
2022-10-20T01:34:03.243Z,99.99
2022-10-20T01:35:03.227Z,99.99
2022-10-20T01:36:03.240Z,99.99
2022-10-20T01:37:03.215Z,99.99
2022-10-20T01:38:03.207Z,99.99
2022-10-20T01:39:03.204Z,99.99
2022-10-20T01:40:03.188Z,99.99
2022-10-20T01:41:03.194Z,99.99
2022-10-20T01:42:03.189Z,99.99
2022-10-20T01:43:03.156Z,99.99
2022-10-20T01:44:03.153Z,99.99
2022-10-20T01:45:04.109Z,99.82
2022-10-20T01:46:03.144Z,99.99
2022-10-20T01:47:03.142Z,99.99
2022-10-20T01:48:03.125Z,99.99
2022-10-20T01:49:03.133Z,99.99
2022-10-20T01:50:03.116Z,99.99
2022-10-20T01:51:03.098Z,99.99
2022-10-20T01:52:03.100Z,99.99
2022-10-20T01:53:03.111Z,99.99
2022-10-20T01:54:03.083Z,99.99
2022-10-20T01:55:03.162Z,99.99
2022-10-20T01:56:03.062Z,99.99
2022-10-20T01:57:03.050Z,99.99
2022-10-20T01:58:03.049Z,99.99
2022-10-20T01:59:03.037Z,99.99
2022-10-20T02:00:03.038Z,99.99
2022-10-20T02:01:03.044Z,99.99
2022-10-20T02:02:03.011Z,99.99
2022-10-20T02:03:03.005Z,99.99
2022-10-20T02:04:03.011Z,99.99
2022-10-20T02:05:02.996Z,99.99
2022-10-20T02:06:03.035Z,99.99
2022-10-20T02:07:02.982Z,99.99
2022-10-20T02:08:02.969Z,99.99
2022-10-20T02:09:02.986Z,99.99
2022-10-20T02:10:02.963Z,99.99
2022-10-20T02:11:02.946Z,99.99
2022-10-20T02:12:02.938Z,99.99
2022-10-20T02:13:02.932Z,99.99
2022-10-20T02:14:02.936Z,99.99
2022-10-20T02:15:02.921Z,99.99
2022-10-20T02:16:02.903Z,99.99
2022-10-20T02:17:03.609Z,99.99
2022-10-20T02:18:02.888Z,99.99
2022-10-20T02:19:02.902Z,99.99
2022-10-20T02:20:02.868Z,99.99
2022-10-20T02:21:02.859Z,99.99
2022-10-20T02:22:02.858Z,99.99
2022-10-20T02:23:02.890Z,99.99
2022-10-20T02:24:02.832Z,99.99
2022-10-20T02:25:02.828Z,99.55
2022-10-20T02:26:02.816Z,99.99
2022-10-20T02:27:02.821Z,99.99
2022-10-20T02:28:02.817Z,99.99
2022-10-20T02:29:02.797Z,99.99
2022-10-20T02:30:02.780Z,99.99
2022-10-20T02:31:02.776Z,99.96
2022-10-20T02:32:02.768Z,99.86
2022-10-20T02:33:02.758Z,99.99
2022-10-20T02:34:02.752Z,99.99
2022-10-20T02:35:05.104Z,99.99
2022-10-20T02:36:02.734Z,99.99
2022-10-20T02:37:02.762Z,99.99
2022-10-20T02:38:02.719Z,99.99
2022-10-20T02:39:02.705Z,99.99
2022-10-20T02:40:02.702Z,99.99
2022-10-20T02:41:02.695Z,99.99
2022-10-20T02:42:02.679Z,99.99
2022-10-20T02:43:02.672Z,99.99
2022-10-20T02:44:02.664Z,99.99
2022-10-20T02:45:02.663Z,99.99
2022-10-20T02:46:02.743Z,99.99
2022-10-20T02:47:02.643Z,99.99
2022-10-20T02:48:05.147Z,99.99
2022-10-20T02:49:03.626Z,99.99
2022-10-20T02:50:02.613Z,99.59
2022-10-20T02:51:02.615Z,99.80
2022-10-20T02:52:02.600Z,99.99
2022-10-20T02:53:02.593Z,99.64
2022-10-20T02:54:02.597Z,99.99
2022-10-20T02:55:02.578Z,99.99
2022-10-20T02:56:02.598Z,99.99
2022-10-20T02:57:02.557Z,99.99
2022-10-20T02:58:02.556Z,99.99
2022-10-20T02:59:02.551Z,99.99
2022-10-20T03:00:02.537Z,99.99
2022-10-20T03:01:02.531Z,99.99
2022-10-20T03:02:02.532Z,99.99
2022-10-20T03:03:02.516Z,99.99
2022-10-20T03:04:02.496Z,99.99
2022-10-20T03:05:02.503Z,99.99
2022-10-20T03:06:02.482Z,99.99
2022-10-20T03:07:02.470Z,99.99
2022-10-20T03:08:02.485Z,99.99
2022-10-20T03:09:02.548Z,99.99
2022-10-20T03:10:02.456Z,99.99
2022-10-20T03:11:02.462Z,99.99
2022-10-20T03:12:02.439Z,99.99
2022-10-20T03:13:03.127Z,99.99
2022-10-20T03:14:02.526Z,99.99
2022-10-20T03:15:02.417Z,99.99
2022-10-20T03:16:02.408Z,99.99
2022-10-20T03:17:02.412Z,99.99
2022-10-20T03:18:02.392Z,99.99
2022-10-20T03:19:05.320Z,99.99
2022-10-20T03:20:03.379Z,99.99
2022-10-20T03:21:02.383Z,99.99
2022-10-20T03:22:03.158Z,99.99
2022-10-20T03:23:02.349Z,99.99
2022-10-20T03:24:02.338Z,99.99
2022-10-20T03:25:02.335Z,99.99
2022-10-20T03:26:03.059Z,99.99
2022-10-20T03:27:02.322Z,99.99
2022-10-20T03:28:02.307Z,99.99
2022-10-20T03:29:02.300Z,99.99
2022-10-20T03:30:02.292Z,99.99
2022-10-20T03:31:02.307Z,99.99
2022-10-20T03:32:02.280Z,99.99
2022-10-20T03:33:02.267Z,99.99
2022-10-20T03:34:02.261Z,99.99
2022-10-20T03:35:02.245Z,99.99
2022-10-20T03:36:02.251Z,99.99
2022-10-20T03:37:02.230Z,99.99
2022-10-20T03:38:02.237Z,99.99
2022-10-20T03:39:02.219Z,99.99
2022-10-20T03:40:02.231Z,99.99
2022-10-20T03:42:03.197Z,99.99
2022-10-20T03:43:02.186Z,99.99
2022-10-20T03:44:03.053Z,99.99
2022-10-20T03:45:02.169Z,99.99
2022-10-20T03:46:02.180Z,99.99
2022-10-20T03:47:02.161Z,99.99
2022-10-20T03:48:02.144Z,99.99
2022-10-20T03:49:02.143Z,99.99
2022-10-20T03:50:02.288Z,99.99
2022-10-20T03:51:02.130Z,99.99
2022-10-20T03:52:02.113Z,99.99
2022-10-20T03:53:02.121Z,99.99
2022-10-20T03:54:02.104Z,99.99
2022-10-20T03:55:02.092Z,99.99
2022-10-20T03:56:02.083Z,99.99
2022-10-20T03:57:06.789Z,99.99
2022-10-20T03:58:04.074Z,99.99
2022-10-20T04:00:02.063Z,99.99
2022-10-20T04:01:02.041Z,99.99
2022-10-20T04:02:02.115Z,99.99
2022-10-20T04:03:02.033Z,99.99
2022-10-20T04:04:02.023Z,99.99
2022-10-20T04:05:02.012Z,99.99
2022-10-20T04:06:03.010Z,99.99
2022-10-20T04:07:02.003Z,99.99
2022-10-20T04:08:02.035Z,99.99
2022-10-20T04:09:02.061Z,99.99
2022-10-20T04:10:01.993Z,99.99
2022-10-20T04:11:01.998Z,99.99
2022-10-20T04:12:01.975Z,99.99
2022-10-20T04:13:01.960Z,99.99
2022-10-20T04:14:01.944Z,99.99
2022-10-20T04:15:01.948Z,99.99
2022-10-20T04:16:01.950Z,99.99
2022-10-20T04:17:01.935Z,99.99
2022-10-20T04:18:01.967Z,99.99
2022-10-20T04:19:01.911Z,99.99
2022-10-20T04:20:01.933Z,99.99
2022-10-20T04:21:01.903Z,99.99
2022-10-20T04:22:01.918Z,99.99
2022-10-20T04:23:01.884Z,99.99
2022-10-20T04:24:01.866Z,99.99
2022-10-20T04:25:01.854Z,99.99
2022-10-20T04:26:01.891Z,99.99
2022-10-20T04:27:01.843Z,99.99
2022-10-20T04:28:01.839Z,99.99
2022-10-20T04:29:01.852Z,99.99
2022-10-20T04:30:01.818Z,99.99
2022-10-20T04:31:01.812Z,99.99
2022-10-20T04:32:01.814Z,99.99
2022-10-20T04:33:01.805Z,99.99
2022-10-20T04:34:01.804Z,99.99
2022-10-20T04:35:01.780Z,99.99
2022-10-20T04:36:01.766Z,99.99
2022-10-20T04:37:01.762Z,99.99
2022-10-20T04:38:01.759Z,99.99
2022-10-20T04:39:01.759Z,99.99
2022-10-20T04:40:01.738Z,99.99
2022-10-20T04:41:04.011Z,99.99
2022-10-20T04:42:02.721Z,99.99
2022-10-20T04:43:01.774Z,99.99
2022-10-20T04:44:01.717Z,99.99
2022-10-20T04:45:03.659Z,99.99
2022-10-20T04:46:03.973Z,99.99
2022-10-20T04:47:02.690Z,99.99
2022-10-20T04:48:01.684Z,99.99
2022-10-20T04:49:01.689Z,99.99
2022-10-20T04:50:01.668Z,99.99
2022-10-20T04:51:01.654Z,99.99
2022-10-20T04:52:01.675Z,99.99
2022-10-20T04:53:01.636Z,99.99
2022-10-20T04:54:01.649Z,99.99
2022-10-20T04:55:01.647Z,99.99
2022-10-20T04:56:01.632Z,99.99
2022-10-20T04:57:01.663Z,99.99
2022-10-20T04:58:01.599Z,99.99
2022-10-20T04:59:01.588Z,99.99
2022-10-20T05:00:01.594Z,99.99
2022-10-20T05:01:02.132Z,99.99
2022-10-20T05:02:01.651Z,99.99
2022-10-20T05:03:01.607Z,99.99
2022-10-20T05:04:01.579Z,99.99
2022-10-20T05:05:01.541Z,99.99
2022-10-20T05:06:01.537Z,99.99
2022-10-20T05:07:01.537Z,99.99
2022-10-20T05:08:01.519Z,99.99
2022-10-20T05:09:01.671Z,99.99
2022-10-20T05:10:01.529Z,99.99
2022-10-20T05:11:01.503Z,99.99
2022-10-20T05:12:01.543Z,99.99
2022-10-20T05:13:01.481Z,99.99
2022-10-20T05:14:01.471Z,99.99
2022-10-20T05:15:01.477Z,99.99
2022-10-20T05:16:01.457Z,99.99
2022-10-20T05:17:03.228Z,99.99
2022-10-20T05:18:02.440Z,99.99
2022-10-20T05:19:01.444Z,99.99
2022-10-20T05:20:01.422Z,99.94
2022-10-20T05:21:09.069Z,99.88
2022-10-20T05:22:03.428Z,99.99
2022-10-20T05:23:01.402Z,99.99
2022-10-20T05:24:01.409Z,99.99
2022-10-20T05:25:24.472Z,99.99
2022-10-20T05:26:03.669Z,99.99
2022-10-20T05:27:01.388Z,99.52
2022-10-20T05:28:06.099Z,99.57
2022-10-20T05:29:01.365Z,99.99
2022-10-20T05:30:01.341Z,99.99
2022-10-20T05:31:01.709Z,99.99
2022-10-20T05:32:02.342Z,99.99
2022-10-20T05:33:01.325Z,99.99
2022-10-20T05:34:01.327Z,99.99
2022-10-20T05:35:01.311Z,99.77
2022-10-20T05:36:01.292Z,99.88
2022-10-20T05:37:01.301Z,99.99
2022-10-20T05:38:02.147Z,99.99
2022-10-20T05:39:01.267Z,99.99
2022-10-20T05:40:01.269Z,99.99
2022-10-20T05:41:01.251Z,99.99
2022-10-20T05:42:01.245Z,99.99
2022-10-20T05:43:01.276Z,99.99
2022-10-20T05:44:01.237Z,99.99
2022-10-20T05:45:01.226Z,99.99
2022-10-20T05:46:01.225Z,99.99
2022-10-20T05:47:01.214Z,99.99
2022-10-20T05:48:01.205Z,99.99
2022-10-20T05:49:01.198Z,99.99
2022-10-20T05:50:01.191Z,99.77
2022-10-20T05:51:01.181Z,99.99
2022-10-20T05:52:01.170Z,99.77
2022-10-20T05:53:01.173Z,99.88
2022-10-20T05:54:01.151Z,99.67
2022-10-20T05:55:01.176Z,99.99
2022-10-20T05:56:01.146Z,99.88
2022-10-20T05:57:01.208Z,99.77
2022-10-20T05:58:01.117Z,99.36
2022-10-20T05:59:01.121Z,99.88
2022-10-20T06:00:01.111Z,99.99
2022-10-20T06:01:01.096Z,99.99
2022-10-20T06:02:01.090Z,99.99
2022-10-20T06:03:01.088Z,99.99
2022-10-20T06:04:01.078Z,99.99
2022-10-20T06:05:01.079Z,99.99
2022-10-20T06:06:01.069Z,99.88
2022-10-20T06:07:01.052Z,99.99
2022-10-20T06:08:01.056Z,99.99
2022-10-20T06:09:01.104Z,99.99
2022-10-20T06:10:01.055Z,99.99
2022-10-20T06:11:01.025Z,99.73
2022-10-20T06:12:01.023Z,99.99
2022-10-20T06:13:02.005Z,99.99
2022-10-20T06:14:01.009Z,99.99
2022-10-20T06:15:01.005Z,99.84
2022-10-20T06:16:00.989Z,99.73
2022-10-20T06:17:00.995Z,99.94
2022-10-20T06:18:00.971Z,99.94
2022-10-20T06:19:00.954Z,99.63
2022-10-20T06:20:00.945Z,99.99
2022-10-20T06:21:00.947Z,99.90
2022-10-20T06:22:04.001Z,99.90
2022-10-20T06:23:02.921Z,99.52
2022-10-20T06:24:00.915Z,99.37
2022-10-20T06:25:00.947Z,99.58
2022-10-20T06:26:00.895Z,99.68
2022-10-20T06:27:02.188Z,99.22
2022-10-20T06:28:00.876Z,99.12
2022-10-20T06:29:04.276Z,98.60
2022-10-20T06:30:01.862Z,98.08
2022-10-20T06:31:00.887Z,98.03
2022-10-20T06:32:00.934Z,97.83
2022-10-20T06:33:00.840Z,97.27
2022-10-20T06:34:00.829Z,96.64
2022-10-20T06:35:00.833Z,96.64
2022-10-20T06:36:00.817Z,96.50
2022-10-20T06:37:00.804Z,97.07
2022-10-20T06:38:00.863Z,95.31
2022-10-20T06:39:00.785Z,95.93
2022-10-20T06:40:00.792Z,94.74
2022-10-20T06:41:01.575Z,94.43
2022-10-20T06:42:00.764Z,94.12
2022-10-20T06:43:00.761Z,95.12
2022-10-20T06:44:00.754Z,95.84
2022-10-20T06:45:00.743Z,93.46
2022-10-20T06:46:00.763Z,93.71
2022-10-20T06:47:01.599Z,94.12
2022-10-20T06:48:00.712Z,93.91
2022-10-20T06:49:00.705Z,94.43
2022-10-20T06:50:00.691Z,93.87
2022-10-20T06:51:01.589Z,93.87
2022-10-20T06:52:00.718Z,93.98
2022-10-20T06:53:00.664Z,93.66
2022-10-20T06:54:01.587Z,93.87
2022-10-20T06:55:00.668Z,94.60
2022-10-20T06:56:00.661Z,93.35
2022-10-20T06:57:00.666Z,93.77
2022-10-20T06:58:00.624Z,94.04
2022-10-20T06:59:00.619Z,93.93
2022-10-20T07:00:00.800Z,93.58
2022-10-20T07:01:00.731Z,94.37
2022-10-20T07:02:00.670Z,93.23
2022-10-20T07:03:00.596Z,93.02
2022-10-20T07:04:00.581Z,92.61
2022-10-20T07:05:00.578Z,92.46
2022-10-20T07:06:00.559Z,91.74
2022-10-20T07:07:00.558Z,91.84
2022-10-20T07:08:00.597Z,92.11
2022-10-20T07:09:00.589Z,92.00
2022-10-20T07:10:00.562Z,92.21
2022-10-20T07:11:00.527Z,91.17
2022-10-20T07:12:00.526Z,90.04
2022-10-20T07:13:00.512Z,90.25
2022-10-20T07:14:00.499Z,90.00
2022-10-20T07:15:00.488Z,90.87
2022-10-20T07:16:00.484Z,90.97
2022-10-20T07:17:00.484Z,91.55
2022-10-20T07:18:00.484Z,91.24
2022-10-20T07:19:00.458Z,91.20
2022-10-20T07:20:00.454Z,90.74
2022-10-20T07:21:00.445Z,90.02
2022-10-20T07:22:00.437Z,89.81
2022-10-20T07:23:00.430Z,89.98
2022-10-20T07:24:00.438Z,90.80
2022-10-20T07:25:00.449Z,90.28
2022-10-20T07:26:00.412Z,90.28
2022-10-20T07:27:00.396Z,89.77
2022-10-20T07:28:00.391Z,89.67
2022-10-20T07:29:01.068Z,89.67
2022-10-20T07:30:00.383Z,89.42
2022-10-20T07:31:00.358Z,89.52
2022-10-20T07:32:02.039Z,89.11
2022-10-20T07:33:00.349Z,88.70
2022-10-20T07:34:13.086Z,88.70
2022-10-20T07:35:02.347Z,88.59
2022-10-20T07:36:00.337Z,88.70
2022-10-20T07:37:00.316Z,89.11
2022-10-20T07:38:00.339Z,89.42
2022-10-20T07:39:00.306Z,89.32
2022-10-20T07:40:00.296Z,89.42
2022-10-20T07:41:01.488Z,89.48
2022-10-20T07:42:00.279Z,89.48
2022-10-20T07:43:00.268Z,89.54
2022-10-20T07:44:00.260Z,88.72
2022-10-20T07:45:00.278Z,88.41
2022-10-20T07:46:00.297Z,88.47
2022-10-20T07:47:00.236Z,88.26
2022-10-20T07:48:00.218Z,88.33
2022-10-20T07:49:23.991Z,88.02
2022-10-20T07:50:02.216Z,87.81
2022-10-20T07:51:00.216Z,87.05
2022-10-20T07:52:00.239Z,86.54
2022-10-20T07:53:00.188Z,86.19
2022-10-20T07:54:00.762Z,86.05
2022-10-20T07:55:12.323Z,85.22
2022-10-20T07:56:02.155Z,84.91
2022-10-20T07:57:00.163Z,84.77
2022-10-20T07:58:00.150Z,83.61
2022-10-20T07:59:00.158Z,83.50
2022-10-20T08:00:00.162Z,83.46
2022-10-20T08:01:00.135Z,83.15
2022-10-20T08:02:00.562Z,82.95
2022-10-20T08:03:00.109Z,82.40
2022-10-20T08:04:00.100Z,81.78
2022-10-20T08:05:00.098Z,82.50
2022-10-20T08:06:00.121Z,81.48
2022-10-20T08:07:00.083Z,81.37
2022-10-20T08:08:00.063Z,81.16
2022-10-20T08:09:00.183Z,81.06
2022-10-20T08:10:00.053Z,81.10
2022-10-20T08:11:00.042Z,81.57
2022-10-20T08:12:00.041Z,81.78
2022-10-20T08:13:00.019Z,81.88
2022-10-20T08:14:00.606Z,81.88
2022-10-20T08:15:00.026Z,82.29
2022-10-20T08:16:03.064Z,81.68
2022-10-20T08:17:01.662Z,81.57
2022-10-20T08:17:59.982Z,81.88
2022-10-20T08:19:05.573Z,82.40
2022-10-20T08:20:03.076Z,82.50
2022-10-20T08:20:59.957Z,82.29
2022-10-20T08:21:59.947Z,82.15
2022-10-20T08:22:59.938Z,82.05
2022-10-20T08:23:59.931Z,82.15
2022-10-20T08:25:00.555Z,82.15
2022-10-20T08:25:59.925Z,82.05
2022-10-20T08:26:59.954Z,82.15
2022-10-20T08:27:59.952Z,81.95
2022-10-20T08:28:59.888Z,81.95
2022-10-20T08:30:06.258Z,81.40
2022-10-20T08:31:01.883Z,81.20
2022-10-20T08:31:59.906Z,81.09
2022-10-20T08:32:59.863Z,80.74
2022-10-20T08:33:59.875Z,81.09
2022-10-20T08:34:59.848Z,81.40
2022-10-20T08:35:59.854Z,81.57
2022-10-20T08:36:59.840Z,81.05
2022-10-20T08:37:59.824Z,80.99
2022-10-20T08:39:03.485Z,80.88
2022-10-20T08:40:01.797Z,81.05
2022-10-20T08:40:59.805Z,81.09
2022-10-20T08:42:09.050Z,81.29
2022-10-20T08:43:01.784Z,81.71
2022-10-20T08:43:59.779Z,81.91
2022-10-20T08:44:59.763Z,82.26
2022-10-20T08:45:59.845Z,82.46
2022-10-20T08:46:59.756Z,81.95
2022-10-20T08:47:59.747Z,81.95
2022-10-20T08:49:00.674Z,82.05
2022-10-20T08:50:00.727Z,82.01
2022-10-20T08:50:59.726Z,82.26
2022-10-20T08:51:59.711Z,82.46
2022-10-20T08:52:59.709Z,82.83
2022-10-20T08:53:59.806Z,82.63
2022-10-20T08:54:59.698Z,82.53
2022-10-20T08:55:59.693Z,81.98
2022-10-20T08:56:59.680Z,81.32
2022-10-20T08:57:59.674Z,80.91
2022-10-20T08:58:59.653Z,80.98
2022-10-20T08:59:59.633Z,80.60
2022-10-20T09:01:00.655Z,80.60
2022-10-20T09:01:59.730Z,80.36
2022-10-20T09:02:59.618Z,80.36
2022-10-20T09:03:59.635Z,80.43
2022-10-20T09:04:59.667Z,79.71
2022-10-20T09:05:59.592Z,79.71
2022-10-20T09:06:59.589Z,79.61
2022-10-20T09:07:59.587Z,80.02
2022-10-20T09:08:59.615Z,79.50
2022-10-20T09:09:59.572Z,79.78
2022-10-20T09:10:59.557Z,79.47
2022-10-20T09:11:59.559Z,78.20
2022-10-20T09:12:59.537Z,78.75
2022-10-20T09:13:59.525Z,78.96
2022-10-20T09:14:59.599Z,78.24
2022-10-20T09:15:59.533Z,78.11
2022-10-20T09:17:00.844Z,78.20
2022-10-20T09:18:00.504Z,77.80
2022-10-20T09:18:59.492Z,77.90
2022-10-20T09:19:59.506Z,78.07
2022-10-20T09:20:59.473Z,78.99
2022-10-20T09:21:59.476Z,77.72
2022-10-20T09:23:01.419Z,76.67
2022-10-20T09:24:00.451Z,76.77
2022-10-20T09:24:59.460Z,76.93
2022-10-20T09:25:59.433Z,76.09
2022-10-20T09:27:00.265Z,75.95
2022-10-20T09:28:00.415Z,75.60
2022-10-20T09:29:12.357Z,74.49
2022-10-20T09:30:01.408Z,73.84
2022-10-20T09:30:59.392Z,73.23
2022-10-20T09:32:11.414Z,72.89
2022-10-20T09:33:01.756Z,72.38
2022-10-20T09:33:59.420Z,72.25
2022-10-20T09:34:59.364Z,72.65
2022-10-20T09:37:07.295Z,71.09
2022-10-20T09:38:07.299Z,71.33
2022-10-20T09:39:07.279Z,71.19
2022-10-20T09:40:08.364Z,70.89
2022-10-20T09:41:09.372Z,71.19
2022-10-20T09:42:08.398Z,70.89
2022-10-20T09:43:08.485Z,70.89
2022-10-20T09:44:08.343Z,71.47
2022-10-20T09:45:08.419Z,71.06
2022-10-20T09:46:08.440Z,70.79
2022-10-20T09:47:08.309Z,71.60
2022-10-20T09:48:08.318Z,71.40
2022-10-20T09:49:08.345Z,71.40
2022-10-20T09:50:09.564Z,71.80
2022-10-20T09:51:08.303Z,71.60
2022-10-20T09:52:08.288Z,71.50
2022-10-20T09:53:08.281Z,72.04
2022-10-20T09:54:08.260Z,72.25
2022-10-20T09:55:09.244Z,72.96
2022-10-20T09:56:08.249Z,71.60
2022-10-20T09:57:08.284Z,71.80
2022-10-20T09:58:08.251Z,70.99
2022-10-20T09:59:08.243Z,71.09
2022-10-20T10:00:25.235Z,71.36
2022-10-20T10:01:10.319Z,71.53
2022-10-20T10:02:08.271Z,70.92
2022-10-20T10:03:08.187Z,70.52
2022-10-20T10:04:11.006Z,71.03
2022-10-20T10:05:11.070Z,70.99
2022-10-20T10:06:08.165Z,70.89
2022-10-20T10:07:08.143Z,71.09
2022-10-20T10:08:08.133Z,70.48
2022-10-20T10:09:08.199Z,70.79
2022-10-20T10:10:08.815Z,70.38
2022-10-20T10:11:08.127Z,70.86
2022-10-20T10:12:08.694Z,70.35
2022-10-20T10:13:08.118Z,70.35
2022-10-20T10:14:08.092Z,69.60
2022-10-20T10:15:08.102Z,69.51
2022-10-20T10:16:08.065Z,68.96
2022-10-20T10:17:08.077Z,69.37
2022-10-20T10:18:08.095Z,69.78
2022-10-20T10:19:08.086Z,68.66
2022-10-20T10:20:08.054Z,69.57
2022-10-20T10:21:08.083Z,69.00
2022-10-20T10:22:08.044Z,69.10
2022-10-20T10:23:08.027Z,68.96
2022-10-20T10:24:08.008Z,68.46
2022-10-20T10:25:07.996Z,68.56
2022-10-20T10:26:07.997Z,67.51
2022-10-20T10:27:08.683Z,67.41
2022-10-20T10:28:08.036Z,67.28
2022-10-20T10:29:07.963Z,67.38
2022-10-20T10:30:07.962Z,67.38
2022-10-20T10:31:07.950Z,67.05
2022-10-20T10:32:10.588Z,66.94
2022-10-20T10:33:07.942Z,67.48
2022-10-20T10:34:07.918Z,67.38
2022-10-20T10:35:07.921Z,67.58
2022-10-20T10:36:08.942Z,67.58
2022-10-20T10:37:07.937Z,66.77
2022-10-20T10:38:07.925Z,66.64
2022-10-20T10:39:07.910Z,66.20
2022-10-20T10:40:07.865Z,65.83
2022-10-20T10:41:07.856Z,64.99
2022-10-20T10:42:07.869Z,65.59
2022-10-20T10:43:07.864Z,65.47
2022-10-20T10:44:07.866Z,64.96
2022-10-20T10:45:08.669Z,65.47
2022-10-20T10:46:07.857Z,65.16
2022-10-20T10:47:07.834Z,65.13
2022-10-20T10:48:07.830Z,64.42
2022-10-20T10:49:08.695Z,64.22
2022-10-20T10:50:08.178Z,64.52
2022-10-20T10:52:15.540Z,63.81
2022-10-20T10:53:15.510Z,63.81
2022-10-20T10:54:15.506Z,64.29
2022-10-20T10:55:30.525Z,64.32
2022-10-20T10:56:18.585Z,64.52
2022-10-20T10:57:16.573Z,64.73
2022-10-20T10:58:16.580Z,65.13
2022-10-20T10:59:16.560Z,65.03
2022-10-20T11:00:16.562Z,64.62
2022-10-20T11:01:16.669Z,65.20
2022-10-20T11:02:17.486Z,64.83
2022-10-20T11:03:16.542Z,65.33
2022-10-20T11:04:16.533Z,65.64
2022-10-20T11:06:17.524Z,64.39
2022-10-20T11:07:16.509Z,64.39
2022-10-20T11:08:16.485Z,63.28
2022-10-20T11:09:16.505Z,64.12
2022-10-20T11:10:16.522Z,64.09
2022-10-20T11:11:16.537Z,64.73
2022-10-20T11:12:16.582Z,65.23
2022-10-20T11:13:16.453Z,65.16
2022-10-20T11:14:16.554Z,66.81
2022-10-20T11:15:16.568Z,66.17
2022-10-20T11:16:17.396Z,65.03
2022-10-20T11:17:16.453Z,65.10
2022-10-20T11:18:16.420Z,65.10
2022-10-20T11:19:16.410Z,65.10
2022-10-20T11:20:16.404Z,65.13
2022-10-20T11:21:16.382Z,65.13
2022-10-20T11:22:16.381Z,65.33
2022-10-20T11:23:16.365Z,64.62
2022-10-20T11:24:16.359Z,64.52
2022-10-20T11:25:16.349Z,64.83
2022-10-20T11:26:16.336Z,65.03
2022-10-20T11:27:16.341Z,65.03
2022-10-20T11:28:16.323Z,65.43
2022-10-20T11:29:16.334Z,64.73
2022-10-20T11:30:16.310Z,65.20
2022-10-20T11:31:16.296Z,65.30
2022-10-20T11:32:16.310Z,64.90
2022-10-20T11:33:16.279Z,65.00
2022-10-20T11:34:16.278Z,64.90
2022-10-20T11:35:16.341Z,65.30
2022-10-20T11:36:16.257Z,64.70
2022-10-20T11:37:16.257Z,64.46
2022-10-20T11:38:16.262Z,63.73
2022-10-20T11:39:16.896Z,62.71
2022-10-20T11:40:16.234Z,63.82
2022-10-20T11:41:16.227Z,64.23
2022-10-20T11:42:16.220Z,64.13
2022-10-20T11:43:16.219Z,64.67
2022-10-20T11:44:16.201Z,64.94
2022-10-20T11:45:16.233Z,64.97
2022-10-20T11:46:16.981Z,64.97
2022-10-20T11:47:16.176Z,64.87
2022-10-20T11:48:16.180Z,65.07
2022-10-20T11:49:16.161Z,64.94
2022-10-20T11:50:16.190Z,64.76
2022-10-20T11:51:16.168Z,63.73
2022-10-20T11:52:16.143Z,63.12
2022-10-20T11:53:16.137Z,63.82
2022-10-20T11:54:16.130Z,63.82
2022-10-20T11:55:16.118Z,63.32
2022-10-20T11:56:16.116Z,63.62
2022-10-20T11:57:16.107Z,63.12
2022-10-20T11:58:17.907Z,64.03
2022-10-20T11:59:16.093Z,64.00
2022-10-20T12:00:16.109Z,63.59
2022-10-20T12:01:16.075Z,63.09
2022-10-20T12:02:16.120Z,63.90
2022-10-20T12:03:16.984Z,64.64
2022-10-20T12:04:16.054Z,64.73
2022-10-20T12:05:16.038Z,64.64
2022-10-20T12:06:16.041Z,64.50
2022-10-20T12:07:16.033Z,64.90
2022-10-20T12:08:29.399Z,65.01
2022-10-20T12:09:20.001Z,64.73
2022-10-20T12:10:17.035Z,64.84
2022-10-20T12:11:16.943Z,65.57
2022-10-20T12:12:16.987Z,65.27
2022-10-20T12:13:15.993Z,66.58
2022-10-20T12:14:15.995Z,66.78
2022-10-20T12:15:18.927Z,66.18
2022-10-20T12:16:16.965Z,66.55
2022-10-20T12:17:16.489Z,67.06
2022-10-20T12:18:15.958Z,67.16
2022-10-20T12:19:15.930Z,66.99
2022-10-20T12:20:16.929Z,67.66
2022-10-20T12:21:15.933Z,67.16
2022-10-20T12:22:15.927Z,67.06
2022-10-20T12:23:15.915Z,67.80
2022-10-20T12:24:15.894Z,68.77
2022-10-20T12:25:15.886Z,69.31
2022-10-20T12:26:15.885Z,70.22
2022-10-20T12:27:15.889Z,70.56
2022-10-20T12:28:15.872Z,71.06
2022-10-20T12:29:15.880Z,71.17
2022-10-20T12:30:15.861Z,71.06
2022-10-20T12:31:15.851Z,71.23
2022-10-20T12:32:15.844Z,71.26
2022-10-20T12:33:15.826Z,71.13
2022-10-20T12:34:15.825Z,71.33
2022-10-20T12:35:15.831Z,70.93
2022-10-20T12:36:15.809Z,70.62
2022-10-20T12:37:15.808Z,70.62
2022-10-20T12:38:15.786Z,70.32
2022-10-20T12:39:16.782Z,70.19
2022-10-20T12:40:15.777Z,69.98
2022-10-20T12:41:15.773Z,70.12
2022-10-20T12:42:15.825Z,69.92
2022-10-20T12:43:15.753Z,70.02
2022-10-20T12:44:15.787Z,70.39
2022-10-20T12:45:15.750Z,70.12
2022-10-20T12:46:15.782Z,70.09
2022-10-20T12:47:15.735Z,70.22
2022-10-20T12:48:15.755Z,70.39
2022-10-20T12:49:15.729Z,70.02
2022-10-20T12:50:15.697Z,70.76
2022-10-20T12:51:15.691Z,71.00
2022-10-20T12:52:15.682Z,71.03
2022-10-20T12:53:15.675Z,71.44
2022-10-20T12:54:16.582Z,71.33
2022-10-20T12:55:15.756Z,72.08
2022-10-20T12:56:15.651Z,71.97
2022-10-20T12:57:17.625Z,72.88
2022-10-20T12:58:15.634Z,72.38
2022-10-20T12:59:15.636Z,72.08